<?xml version="1.0" encoding="UTF-8" standalone="no" ?>
<gpx xmlns="http://www.topografix.com/GPX/1/1" xmlns:xsi="http://www.w3.org/2001/XMLSchema-instance" xsi:schemaLocation="http://www.topografix.com/GPX/1/1 http://www.topografix.com/GPX/1/1/gpx.xsd" version="1.1" creator="VisuGPX - https://www.visugpx.com">
  <metadata>
    <name>Franchard denecourt GR</name>
    <desc><![CDATA[randorismartine Franchard denecourt GR]]></desc>
  </metadata>
  <trk>
    <name><![CDATA[20180217171946-NroiL]]></name>
    <trkseg>
      <trkpt lat="48.40927" lon="2.63438">
        <ele>139</ele>
        <time>2018-02-17T17:14:27Z</time>
      </trkpt>
      <trkpt lat="48.40963" lon="2.63286">
        <ele>138</ele>
        <time>2018-02-17T17:15:27Z</time>
      </trkpt>
      <trkpt lat="48.40935" lon="2.63174">
        <ele>136</ele>
        <time>2018-02-17T17:16:27Z</time>
      </trkpt>
      <trkpt lat="48.40881" lon="2.63192">
        <ele>134</ele>
        <time>2018-02-17T17:17:27Z</time>
      </trkpt>
      <trkpt lat="48.40915" lon="2.63089">
        <ele>134</ele>
        <time>2018-02-17T17:18:27Z</time>
      </trkpt>
      <trkpt lat="48.40915" lon="2.63011">
        <ele>134</ele>
        <time>2018-02-17T17:19:27Z</time>
      </trkpt>
      <trkpt lat="48.40913" lon="2.62966">
        <ele>131</ele>
        <time>2018-02-17T17:20:27Z</time>
      </trkpt>
      <trkpt lat="48.40925" lon="2.62924">
        <ele>132</ele>
        <time>2018-02-17T17:21:27Z</time>
      </trkpt>
      <trkpt lat="48.40918" lon="2.62893">
        <ele>131</ele>
        <time>2018-02-17T17:22:27Z</time>
      </trkpt>
      <trkpt lat="48.40908" lon="2.6287">
        <ele>129</ele>
        <time>2018-02-17T17:23:27Z</time>
      </trkpt>
      <trkpt lat="48.40912" lon="2.62839">
        <ele>130</ele>
        <time>2018-02-17T17:24:27Z</time>
      </trkpt>
      <trkpt lat="48.40886" lon="2.62788">
        <ele>128</ele>
        <time>2018-02-17T17:25:27Z</time>
      </trkpt>
      <trkpt lat="48.40856" lon="2.62769">
        <ele>127</ele>
        <time>2018-02-17T17:26:27Z</time>
      </trkpt>
      <trkpt lat="48.40861" lon="2.62719">
        <ele>127</ele>
        <time>2018-02-17T17:27:27Z</time>
      </trkpt>
      <trkpt lat="48.40875" lon="2.62684">
        <ele>127</ele>
        <time>2018-02-17T17:28:27Z</time>
      </trkpt>
      <trkpt lat="48.40885" lon="2.6262">
        <ele>126</ele>
        <time>2018-02-17T17:29:27Z</time>
      </trkpt>
      <trkpt lat="48.409" lon="2.62568">
        <ele>126</ele>
        <time>2018-02-17T17:30:27Z</time>
      </trkpt>
      <trkpt lat="48.40903" lon="2.62525">
        <ele>125</ele>
        <time>2018-02-17T17:31:27Z</time>
      </trkpt>
      <trkpt lat="48.40917" lon="2.62467">
        <ele>128</ele>
        <time>2018-02-17T17:32:27Z</time>
      </trkpt>
      <trkpt lat="48.40939" lon="2.62398">
        <ele>129</ele>
        <time>2018-02-17T17:33:27Z</time>
      </trkpt>
      <trkpt lat="48.40932" lon="2.62369">
        <ele>128</ele>
        <time>2018-02-17T17:34:27Z</time>
      </trkpt>
      <trkpt lat="48.4091" lon="2.62346">
        <ele>126</ele>
        <time>2018-02-17T17:35:27Z</time>
      </trkpt>
      <trkpt lat="48.40911" lon="2.62307">
        <ele>124</ele>
        <time>2018-02-17T17:36:27Z</time>
      </trkpt>
      <trkpt lat="48.40941" lon="2.62315">
        <ele>128</ele>
        <time>2018-02-17T17:37:27Z</time>
      </trkpt>
      <trkpt lat="48.40958" lon="2.62296">
        <ele>128</ele>
        <time>2018-02-17T17:38:27Z</time>
      </trkpt>
      <trkpt lat="48.40939" lon="2.62279">
        <ele>128</ele>
        <time>2018-02-17T17:39:27Z</time>
      </trkpt>
      <trkpt lat="48.40915" lon="2.62262">
        <ele>125</ele>
        <time>2018-02-17T17:40:27Z</time>
      </trkpt>
      <trkpt lat="48.40897" lon="2.62189">
        <ele>122</ele>
        <time>2018-02-17T17:41:27Z</time>
      </trkpt>
      <trkpt lat="48.40893" lon="2.62127">
        <ele>120</ele>
        <time>2018-02-17T17:42:27Z</time>
      </trkpt>
      <trkpt lat="48.40909" lon="2.62065">
        <ele>120</ele>
        <time>2018-02-17T17:43:27Z</time>
      </trkpt>
      <trkpt lat="48.4092" lon="2.62024">
        <ele>124</ele>
        <time>2018-02-17T17:44:27Z</time>
      </trkpt>
      <trkpt lat="48.40939" lon="2.61992">
        <ele>124</ele>
        <time>2018-02-17T17:45:27Z</time>
      </trkpt>
      <trkpt lat="48.40956" lon="2.6196">
        <ele>124</ele>
        <time>2018-02-17T17:46:27Z</time>
      </trkpt>
      <trkpt lat="48.40977" lon="2.61956">
        <ele>125</ele>
        <time>2018-02-17T17:47:27Z</time>
      </trkpt>
      <trkpt lat="48.40955" lon="2.61926">
        <ele>124</ele>
        <time>2018-02-17T17:48:27Z</time>
      </trkpt>
      <trkpt lat="48.40943" lon="2.61899">
        <ele>123</ele>
        <time>2018-02-17T17:49:27Z</time>
      </trkpt>
      <trkpt lat="48.40941" lon="2.61841">
        <ele>122</ele>
        <time>2018-02-17T17:50:27Z</time>
      </trkpt>
      <trkpt lat="48.40966" lon="2.61799">
        <ele>122</ele>
        <time>2018-02-17T17:51:27Z</time>
      </trkpt>
      <trkpt lat="48.4097" lon="2.61754">
        <ele>123</ele>
        <time>2018-02-17T17:52:27Z</time>
      </trkpt>
      <trkpt lat="48.41046" lon="2.61829">
        <ele>114</ele>
        <time>2018-02-17T17:53:27Z</time>
      </trkpt>
      <trkpt lat="48.41101" lon="2.61808">
        <ele>104</ele>
        <time>2018-02-17T17:54:27Z</time>
      </trkpt>
      <trkpt lat="48.41157" lon="2.61494">
        <ele>98</ele>
        <time>2018-02-17T17:55:27Z</time>
      </trkpt>
      <trkpt lat="48.41148" lon="2.61325">
        <ele>97</ele>
        <time>2018-02-17T17:56:27Z</time>
      </trkpt>
      <trkpt lat="48.41113" lon="2.60956">
        <ele>94</ele>
        <time>2018-02-17T17:57:27Z</time>
      </trkpt>
      <trkpt lat="48.41101" lon="2.60874">
        <ele>94</ele>
        <time>2018-02-17T17:58:27Z</time>
      </trkpt>
      <trkpt lat="48.41073" lon="2.60823">
        <ele>95</ele>
        <time>2018-02-17T17:59:27Z</time>
      </trkpt>
      <trkpt lat="48.41012" lon="2.60801">
        <ele>95</ele>
        <time>2018-02-17T18:00:27Z</time>
      </trkpt>
      <trkpt lat="48.41007" lon="2.60765">
        <ele>95</ele>
        <time>2018-02-17T18:01:27Z</time>
      </trkpt>
      <trkpt lat="48.4094" lon="2.60739">
        <ele>98</ele>
        <time>2018-02-17T18:02:27Z</time>
      </trkpt>
      <trkpt lat="48.40848" lon="2.60672">
        <ele>104</ele>
        <time>2018-02-17T18:03:27Z</time>
      </trkpt>
      <trkpt lat="48.40791" lon="2.60642">
        <ele>111</ele>
        <time>2018-02-17T18:04:27Z</time>
      </trkpt>
      <trkpt lat="48.40671" lon="2.6072">
        <ele>125</ele>
        <time>2018-02-17T18:05:27Z</time>
      </trkpt>
      <trkpt lat="48.40661" lon="2.60612">
        <ele>128</ele>
        <time>2018-02-17T18:06:27Z</time>
      </trkpt>
      <trkpt lat="48.40693" lon="2.60565">
        <ele>122</ele>
        <time>2018-02-17T18:07:27Z</time>
      </trkpt>
      <trkpt lat="48.4069" lon="2.60415">
        <ele>123</ele>
        <time>2018-02-17T18:08:27Z</time>
      </trkpt>
      <trkpt lat="48.40603" lon="2.60329">
        <ele>128</ele>
        <time>2018-02-17T18:09:27Z</time>
      </trkpt>
      <trkpt lat="48.40624" lon="2.60149">
        <ele>127</ele>
        <time>2018-02-17T18:10:27Z</time>
      </trkpt>
      <trkpt lat="48.40665" lon="2.59964">
        <ele>129</ele>
        <time>2018-02-17T18:11:27Z</time>
      </trkpt>
      <trkpt lat="48.40651" lon="2.59902">
        <ele>128</ele>
        <time>2018-02-17T18:12:27Z</time>
      </trkpt>
      <trkpt lat="48.40586" lon="2.59831">
        <ele>129</ele>
        <time>2018-02-17T18:13:27Z</time>
      </trkpt>
      <trkpt lat="48.40654" lon="2.5976">
        <ele>124</ele>
        <time>2018-02-17T18:14:27Z</time>
      </trkpt>
      <trkpt lat="48.40637" lon="2.59625">
        <ele>123</ele>
        <time>2018-02-17T18:15:27Z</time>
      </trkpt>
      <trkpt lat="48.40687" lon="2.59533">
        <ele>121</ele>
        <time>2018-02-17T18:16:27Z</time>
      </trkpt>
      <trkpt lat="48.40691" lon="2.59475">
        <ele>119</ele>
        <time>2018-02-17T18:17:27Z</time>
      </trkpt>
      <trkpt lat="48.40658" lon="2.59402">
        <ele>121</ele>
        <time>2018-02-17T18:18:27Z</time>
      </trkpt>
      <trkpt lat="48.40627" lon="2.59312">
        <ele>122</ele>
        <time>2018-02-17T18:19:27Z</time>
      </trkpt>
      <trkpt lat="48.40637" lon="2.59252">
        <ele>122</ele>
        <time>2018-02-17T18:20:27Z</time>
      </trkpt>
      <trkpt lat="48.40661" lon="2.59211">
        <ele>120</ele>
        <time>2018-02-17T18:21:27Z</time>
      </trkpt>
      <trkpt lat="48.40633" lon="2.59177">
        <ele>119</ele>
        <time>2018-02-17T18:22:27Z</time>
      </trkpt>
      <trkpt lat="48.40596" lon="2.59181">
        <ele>117</ele>
        <time>2018-02-17T18:23:27Z</time>
      </trkpt>
      <trkpt lat="48.4057" lon="2.59182">
        <ele>111</ele>
        <time>2018-02-17T18:24:27Z</time>
      </trkpt>
      <trkpt lat="48.4054" lon="2.592">
        <ele>108</ele>
        <time>2018-02-17T18:25:27Z</time>
      </trkpt>
      <trkpt lat="48.4051" lon="2.59201">
        <ele>106</ele>
        <time>2018-02-17T18:26:27Z</time>
      </trkpt>
      <trkpt lat="48.40487" lon="2.59224">
        <ele>102</ele>
        <time>2018-02-17T18:27:27Z</time>
      </trkpt>
      <trkpt lat="48.40443" lon="2.59185">
        <ele>102</ele>
        <time>2018-02-17T18:28:27Z</time>
      </trkpt>
      <trkpt lat="48.40418" lon="2.59175">
        <ele>102</ele>
        <time>2018-02-17T18:29:27Z</time>
      </trkpt>
      <trkpt lat="48.40377" lon="2.5916">
        <ele>101</ele>
        <time>2018-02-17T18:30:27Z</time>
      </trkpt>
      <trkpt lat="48.40338" lon="2.5919">
        <ele>102</ele>
        <time>2018-02-17T18:31:27Z</time>
      </trkpt>
      <trkpt lat="48.40315" lon="2.59215">
        <ele>101</ele>
        <time>2018-02-17T18:32:27Z</time>
      </trkpt>
      <trkpt lat="48.40309" lon="2.59244">
        <ele>102</ele>
        <time>2018-02-17T18:33:27Z</time>
      </trkpt>
      <trkpt lat="48.40242" lon="2.59314">
        <ele>107</ele>
        <time>2018-02-17T18:34:27Z</time>
      </trkpt>
      <trkpt lat="48.402" lon="2.59357">
        <ele>114</ele>
        <time>2018-02-17T18:35:27Z</time>
      </trkpt>
      <trkpt lat="48.40123" lon="2.59391">
        <ele>125</ele>
        <time>2018-02-17T18:36:27Z</time>
      </trkpt>
      <trkpt lat="48.40047" lon="2.59434">
        <ele>126</ele>
        <time>2018-02-17T18:37:27Z</time>
      </trkpt>
      <trkpt lat="48.4003" lon="2.59488">
        <ele>125</ele>
        <time>2018-02-17T18:38:27Z</time>
      </trkpt>
      <trkpt lat="48.39985" lon="2.59488">
        <ele>121</ele>
        <time>2018-02-17T18:39:27Z</time>
      </trkpt>
      <trkpt lat="48.39942" lon="2.59503">
        <ele>119</ele>
        <time>2018-02-17T18:40:27Z</time>
      </trkpt>
      <trkpt lat="48.39889" lon="2.59475">
        <ele>119</ele>
        <time>2018-02-17T18:41:27Z</time>
      </trkpt>
      <trkpt lat="48.39932" lon="2.59449">
        <ele>121</ele>
        <time>2018-02-17T18:42:27Z</time>
      </trkpt>
      <trkpt lat="48.39923" lon="2.59385">
        <ele>122</ele>
        <time>2018-02-17T18:43:27Z</time>
      </trkpt>
      <trkpt lat="48.39932" lon="2.59312">
        <ele>122</ele>
        <time>2018-02-17T18:44:27Z</time>
      </trkpt>
      <trkpt lat="48.39945" lon="2.59276">
        <ele>121</ele>
        <time>2018-02-17T18:45:27Z</time>
      </trkpt>
      <trkpt lat="48.39929" lon="2.59215">
        <ele>120</ele>
        <time>2018-02-17T18:46:27Z</time>
      </trkpt>
      <trkpt lat="48.39922" lon="2.59155">
        <ele>118</ele>
        <time>2018-02-17T18:47:27Z</time>
      </trkpt>
      <trkpt lat="48.39933" lon="2.59074">
        <ele>113</ele>
        <time>2018-02-17T18:48:27Z</time>
      </trkpt>
      <trkpt lat="48.3989" lon="2.58984">
        <ele>112</ele>
        <time>2018-02-17T18:49:27Z</time>
      </trkpt>
      <trkpt lat="48.39842" lon="2.59001">
        <ele>111</ele>
        <time>2018-02-17T18:50:27Z</time>
      </trkpt>
      <trkpt lat="48.39842" lon="2.58947">
        <ele>109</ele>
        <time>2018-02-17T18:51:27Z</time>
      </trkpt>
      <trkpt lat="48.39821" lon="2.58891">
        <ele>102</ele>
        <time>2018-02-17T18:52:27Z</time>
      </trkpt>
      <trkpt lat="48.39781" lon="2.58876">
        <ele>100</ele>
        <time>2018-02-17T18:53:27Z</time>
      </trkpt>
      <trkpt lat="48.39737" lon="2.58833">
        <ele>94</ele>
        <time>2018-02-17T18:54:27Z</time>
      </trkpt>
      <trkpt lat="48.39644" lon="2.58851">
        <ele>87</ele>
        <time>2018-02-17T18:55:27Z</time>
      </trkpt>
      <trkpt lat="48.39623" lon="2.5905">
        <ele>87</ele>
        <time>2018-02-17T18:56:27Z</time>
      </trkpt>
      <trkpt lat="48.39596" lon="2.59286">
        <ele>89</ele>
        <time>2018-02-17T18:57:27Z</time>
      </trkpt>
      <trkpt lat="48.39551" lon="2.59559">
        <ele>89</ele>
        <time>2018-02-17T18:58:27Z</time>
      </trkpt>
      <trkpt lat="48.39496" lon="2.59979">
        <ele>92</ele>
        <time>2018-02-17T18:59:27Z</time>
      </trkpt>
      <trkpt lat="48.39603" lon="2.59956">
        <ele>101</ele>
        <time>2018-02-17T19:00:27Z</time>
      </trkpt>
      <trkpt lat="48.39647" lon="2.60035">
        <ele>105</ele>
        <time>2018-02-17T19:01:27Z</time>
      </trkpt>
      <trkpt lat="48.39725" lon="2.60046">
        <ele>114</ele>
        <time>2018-02-17T19:02:27Z</time>
      </trkpt>
      <trkpt lat="48.39751" lon="2.60164">
        <ele>116</ele>
        <time>2018-02-17T19:03:27Z</time>
      </trkpt>
      <trkpt lat="48.39789" lon="2.60209">
        <ele>117</ele>
        <time>2018-02-17T19:04:27Z</time>
      </trkpt>
      <trkpt lat="48.39818" lon="2.60299">
        <ele>118</ele>
        <time>2018-02-17T19:05:27Z</time>
      </trkpt>
      <trkpt lat="48.39856" lon="2.60404">
        <ele>120</ele>
        <time>2018-02-17T19:06:27Z</time>
      </trkpt>
      <trkpt lat="48.39938" lon="2.60432">
        <ele>122</ele>
        <time>2018-02-17T19:07:27Z</time>
      </trkpt>
      <trkpt lat="48.3998" lon="2.6046">
        <ele>121</ele>
        <time>2018-02-17T19:08:27Z</time>
      </trkpt>
      <trkpt lat="48.40026" lon="2.60565">
        <ele>121</ele>
        <time>2018-02-17T19:09:27Z</time>
      </trkpt>
      <trkpt lat="48.40079" lon="2.60666">
        <ele>122</ele>
        <time>2018-02-17T19:10:27Z</time>
      </trkpt>
      <trkpt lat="48.40098" lon="2.6081">
        <ele>125</ele>
        <time>2018-02-17T19:11:27Z</time>
      </trkpt>
      <trkpt lat="48.40101" lon="2.60904">
        <ele>125</ele>
        <time>2018-02-17T19:12:27Z</time>
      </trkpt>
      <trkpt lat="48.40191" lon="2.60923">
        <ele>128</ele>
        <time>2018-02-17T19:13:27Z</time>
      </trkpt>
      <trkpt lat="48.4025" lon="2.60932">
        <ele>131</ele>
        <time>2018-02-17T19:14:27Z</time>
      </trkpt>
      <trkpt lat="48.40285" lon="2.60947">
        <ele>131</ele>
        <time>2018-02-17T19:15:27Z</time>
      </trkpt>
      <trkpt lat="48.40324" lon="2.60949">
        <ele>132</ele>
        <time>2018-02-17T19:16:27Z</time>
      </trkpt>
      <trkpt lat="48.40398" lon="2.6099">
        <ele>130</ele>
        <time>2018-02-17T19:17:27Z</time>
      </trkpt>
      <trkpt lat="48.40466" lon="2.61024">
        <ele>130</ele>
        <time>2018-02-17T19:18:27Z</time>
      </trkpt>
      <trkpt lat="48.40551" lon="2.61056">
        <ele>129</ele>
        <time>2018-02-17T19:19:27Z</time>
      </trkpt>
      <trkpt lat="48.40621" lon="2.6111">
        <ele>128</ele>
        <time>2018-02-17T19:20:27Z</time>
      </trkpt>
      <trkpt lat="48.40675" lon="2.61151">
        <ele>124</ele>
        <time>2018-02-17T19:21:27Z</time>
      </trkpt>
      <trkpt lat="48.40751" lon="2.61129">
        <ele>115</ele>
        <time>2018-02-17T19:22:27Z</time>
      </trkpt>
      <trkpt lat="48.4074" lon="2.61247">
        <ele>119</ele>
        <time>2018-02-17T19:23:27Z</time>
      </trkpt>
      <trkpt lat="48.40705" lon="2.61436">
        <ele>125</ele>
        <time>2018-02-17T19:24:27Z</time>
      </trkpt>
      <trkpt lat="48.40678" lon="2.61642">
        <ele>117</ele>
        <time>2018-02-17T19:25:27Z</time>
      </trkpt>
      <trkpt lat="48.4065" lon="2.61902">
        <ele>120</ele>
        <time>2018-02-17T19:26:27Z</time>
      </trkpt>
      <trkpt lat="48.40603" lon="2.62177">
        <ele>126</ele>
        <time>2018-02-17T19:27:27Z</time>
      </trkpt>
      <trkpt lat="48.40553" lon="2.62535">
        <ele>123</ele>
        <time>2018-02-17T19:28:27Z</time>
      </trkpt>
      <trkpt lat="48.40536" lon="2.62715">
        <ele>124</ele>
        <time>2018-02-17T19:29:27Z</time>
      </trkpt>
      <trkpt lat="48.40514" lon="2.62928">
        <ele>131</ele>
        <time>2018-02-17T19:30:27Z</time>
      </trkpt>
      <trkpt lat="48.40497" lon="2.63161">
        <ele>135</ele>
        <time>2018-02-17T19:31:27Z</time>
      </trkpt>
      <trkpt lat="48.40462" lon="2.6346">
        <ele>136</ele>
        <time>2018-02-17T19:32:27Z</time>
      </trkpt>
      <trkpt lat="48.40445" lon="2.63619">
        <ele>139</ele>
        <time>2018-02-17T19:33:27Z</time>
      </trkpt>
      <trkpt lat="48.40415" lon="2.63825">
        <ele>137</ele>
        <time>2018-02-17T19:34:27Z</time>
      </trkpt>
      <trkpt lat="48.40371" lon="2.63874">
        <ele>138</ele>
        <time>2018-02-17T19:35:27Z</time>
      </trkpt>
      <trkpt lat="48.40352" lon="2.63915">
        <ele>138</ele>
        <time>2018-02-17T19:36:27Z</time>
      </trkpt>
      <trkpt lat="48.40352" lon="2.63979">
        <ele>136</ele>
        <time>2018-02-17T19:37:27Z</time>
      </trkpt>
      <trkpt lat="48.40314" lon="2.63962">
        <ele>136</ele>
        <time>2018-02-17T19:38:27Z</time>
      </trkpt>
      <trkpt lat="48.40304" lon="2.64016">
        <ele>135</ele>
        <time>2018-02-17T19:39:27Z</time>
      </trkpt>
      <trkpt lat="48.40304" lon="2.64069">
        <ele>134</ele>
        <time>2018-02-17T19:40:27Z</time>
      </trkpt>
      <trkpt lat="48.40274" lon="2.64106">
        <ele>134</ele>
        <time>2018-02-17T19:41:27Z</time>
      </trkpt>
      <trkpt lat="48.40272" lon="2.64159">
        <ele>134</ele>
        <time>2018-02-17T19:42:27Z</time>
      </trkpt>
      <trkpt lat="48.40264" lon="2.64219">
        <ele>133</ele>
        <time>2018-02-17T19:43:27Z</time>
      </trkpt>
      <trkpt lat="48.40251" lon="2.64288">
        <ele>132</ele>
        <time>2018-02-17T19:44:27Z</time>
      </trkpt>
      <trkpt lat="48.40244" lon="2.64445">
        <ele>131</ele>
        <time>2018-02-17T19:45:27Z</time>
      </trkpt>
      <trkpt lat="48.40231" lon="2.64541">
        <ele>129</ele>
        <time>2018-02-17T19:46:27Z</time>
      </trkpt>
      <trkpt lat="48.40212" lon="2.64601">
        <ele>127</ele>
        <time>2018-02-17T19:47:27Z</time>
      </trkpt>
      <trkpt lat="48.40161" lon="2.64696">
        <ele>131</ele>
        <time>2018-02-17T19:48:27Z</time>
      </trkpt>
      <trkpt lat="48.40131" lon="2.64786">
        <ele>131</ele>
        <time>2018-02-17T19:49:27Z</time>
      </trkpt>
      <trkpt lat="48.40114" lon="2.64889">
        <ele>131</ele>
        <time>2018-02-17T19:50:27Z</time>
      </trkpt>
      <trkpt lat="48.40093" lon="2.64964">
        <ele>128</ele>
        <time>2018-02-17T19:51:27Z</time>
      </trkpt>
      <trkpt lat="48.40097" lon="2.65041">
        <ele>124</ele>
        <time>2018-02-17T19:52:27Z</time>
      </trkpt>
      <trkpt lat="48.4008" lon="2.6511">
        <ele>127</ele>
        <time>2018-02-17T19:53:27Z</time>
      </trkpt>
      <trkpt lat="48.40059" lon="2.65125">
        <ele>127</ele>
        <time>2018-02-17T19:54:27Z</time>
      </trkpt>
      <trkpt lat="48.40066" lon="2.65174">
        <ele>125</ele>
        <time>2018-02-17T19:55:27Z</time>
      </trkpt>
      <trkpt lat="48.40047" lon="2.65224">
        <ele>126</ele>
        <time>2018-02-17T19:56:27Z</time>
      </trkpt>
      <trkpt lat="48.40036" lon="2.6529">
        <ele>125</ele>
        <time>2018-02-17T19:57:27Z</time>
      </trkpt>
      <trkpt lat="48.40039" lon="2.65339">
        <ele>122</ele>
        <time>2018-02-17T19:58:27Z</time>
      </trkpt>
      <trkpt lat="48.40029" lon="2.654">
        <ele>122</ele>
        <time>2018-02-17T19:59:27Z</time>
      </trkpt>
      <trkpt lat="48.39993" lon="2.65464">
        <ele>118</ele>
        <time>2018-02-17T20:00:27Z</time>
      </trkpt>
      <trkpt lat="48.39983" lon="2.65511">
        <ele>115</ele>
        <time>2018-02-17T20:01:27Z</time>
      </trkpt>
      <trkpt lat="48.40033" lon="2.6553">
        <ele>113</ele>
        <time>2018-02-17T20:02:27Z</time>
      </trkpt>
      <trkpt lat="48.40053" lon="2.65593">
        <ele>109</ele>
        <time>2018-02-17T20:03:27Z</time>
      </trkpt>
      <trkpt lat="48.401" lon="2.6558">
        <ele>103</ele>
        <time>2018-02-17T20:04:27Z</time>
      </trkpt>
      <trkpt lat="48.40128" lon="2.65518">
        <ele>101</ele>
        <time>2018-02-17T20:05:27Z</time>
      </trkpt>
      <trkpt lat="48.4014" lon="2.65462">
        <ele>104</ele>
        <time>2018-02-17T20:06:27Z</time>
      </trkpt>
      <trkpt lat="48.40174" lon="2.6541">
        <ele>102</ele>
        <time>2018-02-17T20:07:27Z</time>
      </trkpt>
      <trkpt lat="48.40211" lon="2.65348">
        <ele>105</ele>
        <time>2018-02-17T20:08:27Z</time>
      </trkpt>
      <trkpt lat="48.4025" lon="2.65354">
        <ele>107</ele>
        <time>2018-02-17T20:09:27Z</time>
      </trkpt>
      <trkpt lat="48.40279" lon="2.65299">
        <ele>105</ele>
        <time>2018-02-17T20:10:27Z</time>
      </trkpt>
      <trkpt lat="48.40282" lon="2.65243">
        <ele>103</ele>
        <time>2018-02-17T20:11:27Z</time>
      </trkpt>
      <trkpt lat="48.40311" lon="2.65226">
        <ele>103</ele>
        <time>2018-02-17T20:12:27Z</time>
      </trkpt>
      <trkpt lat="48.40314" lon="2.65185">
        <ele>103</ele>
        <time>2018-02-17T20:13:27Z</time>
      </trkpt>
      <trkpt lat="48.40376" lon="2.65176">
        <ele>102</ele>
        <time>2018-02-17T20:14:27Z</time>
      </trkpt>
      <trkpt lat="48.40423" lon="2.65131">
        <ele>104</ele>
        <time>2018-02-17T20:15:27Z</time>
      </trkpt>
      <trkpt lat="48.4046" lon="2.65125">
        <ele>106</ele>
        <time>2018-02-17T20:16:27Z</time>
      </trkpt>
      <trkpt lat="48.40466" lon="2.65076">
        <ele>108</ele>
        <time>2018-02-17T20:17:27Z</time>
      </trkpt>
      <trkpt lat="48.40499" lon="2.65056">
        <ele>108</ele>
        <time>2018-02-17T20:18:27Z</time>
      </trkpt>
      <trkpt lat="48.40503" lon="2.65015">
        <ele>111</ele>
        <time>2018-02-17T20:19:27Z</time>
      </trkpt>
      <trkpt lat="48.40527" lon="2.6499">
        <ele>112</ele>
        <time>2018-02-17T20:20:27Z</time>
      </trkpt>
      <trkpt lat="48.40522" lon="2.64967">
        <ele>112</ele>
        <time>2018-02-17T20:21:27Z</time>
      </trkpt>
      <trkpt lat="48.40541" lon="2.64929">
        <ele>112</ele>
        <time>2018-02-17T20:22:27Z</time>
      </trkpt>
      <trkpt lat="48.40575" lon="2.64844">
        <ele>116</ele>
        <time>2018-02-17T20:23:27Z</time>
      </trkpt>
      <trkpt lat="48.4059" lon="2.64775">
        <ele>120</ele>
        <time>2018-02-17T20:24:27Z</time>
      </trkpt>
      <trkpt lat="48.40601" lon="2.64687">
        <ele>123</ele>
        <time>2018-02-17T20:25:27Z</time>
      </trkpt>
      <trkpt lat="48.40616" lon="2.64629">
        <ele>126</ele>
        <time>2018-02-17T20:26:27Z</time>
      </trkpt>
      <trkpt lat="48.40607" lon="2.64548">
        <ele>127</ele>
        <time>2018-02-17T20:27:27Z</time>
      </trkpt>
      <trkpt lat="48.40593" lon="2.64485">
        <ele>128</ele>
        <time>2018-02-17T20:28:27Z</time>
      </trkpt>
      <trkpt lat="48.40614" lon="2.64419">
        <ele>130</ele>
        <time>2018-02-17T20:29:27Z</time>
      </trkpt>
      <trkpt lat="48.4063" lon="2.64361">
        <ele>133</ele>
        <time>2018-02-17T20:30:27Z</time>
      </trkpt>
      <trkpt lat="48.40623" lon="2.64271">
        <ele>135</ele>
        <time>2018-02-17T20:31:27Z</time>
      </trkpt>
      <trkpt lat="48.40648" lon="2.64252">
        <ele>135</ele>
        <time>2018-02-17T20:32:27Z</time>
      </trkpt>
      <trkpt lat="48.40636" lon="2.64144">
        <ele>136</ele>
        <time>2018-02-17T20:33:27Z</time>
      </trkpt>
      <trkpt lat="48.40621" lon="2.64052">
        <ele>135</ele>
        <time>2018-02-17T20:34:27Z</time>
      </trkpt>
      <trkpt lat="48.40594" lon="2.63897">
        <ele>134</ele>
        <time>2018-02-17T20:35:27Z</time>
      </trkpt>
      <trkpt lat="48.40573" lon="2.63807">
        <ele>135</ele>
        <time>2018-02-17T20:36:27Z</time>
      </trkpt>
      <trkpt lat="48.40573" lon="2.63762">
        <ele>136</ele>
        <time>2018-02-17T20:37:27Z</time>
      </trkpt>
      <trkpt lat="48.4057" lon="2.63717">
        <ele>136</ele>
        <time>2018-02-17T20:38:27Z</time>
      </trkpt>
      <trkpt lat="48.40581" lon="2.63601">
        <ele>136</ele>
        <time>2018-02-17T20:39:27Z</time>
      </trkpt>
      <trkpt lat="48.4062" lon="2.63619">
        <ele>136</ele>
        <time>2018-02-17T20:40:27Z</time>
      </trkpt>
      <trkpt lat="48.40671" lon="2.63625">
        <ele>136</ele>
        <time>2018-02-17T20:41:27Z</time>
      </trkpt>
      <trkpt lat="48.40751" lon="2.63601">
        <ele>137</ele>
        <time>2018-02-17T20:42:27Z</time>
      </trkpt>
      <trkpt lat="48.40794" lon="2.63539">
        <ele>138</ele>
        <time>2018-02-17T20:43:27Z</time>
      </trkpt>
      <trkpt lat="48.40853" lon="2.63458">
        <ele>138</ele>
        <time>2018-02-17T20:44:27Z</time>
      </trkpt>
      <trkpt lat="48.40898" lon="2.63421">
        <ele>139</ele>
        <time>2018-02-17T20:45:27Z</time>
      </trkpt>
    </trkseg>
  </trk>
</gpx>